Antioch, Ohio
Current Conditions -  °F | °C
As of 3:53 PM on Friday 31 Oct 2014 (Local Time) from KPKB Reporting Station
Light Rain Light Rain  
Wind Chill: 44°   Ceiling: 2600
Heat Index: 46°   Visibility: 10mi
Dew Point: 39°   Wind: 5mph
Humidity: 76%   Direction: 160°SSE
Pressure: 29.88"   Gusts: NA
Location:  39.7388°N, 81.0973°W
Report Text: KPKB 311953Z 16004KT 10SM -RA FEW021 BKN026 OVC034 08/04 A2988 RMK AO2 SLP121 P0001 T00780039
Loading
Personal Weather Stations






























Interactive Weather Map
Tropical Storm Tracking
New forecast layout! Learn more

10-Day Weather Forecast

Advertisements
Track Severe Weather on mobile